sensor_id;sensor_type;location;lat;lon;timestamp;temperature;humidity
6740;DHT22;3407;49.882;10.920;2023-11-19T00:04:49;5.50;71.70
6740;DHT22;3407;49.882;10.920;2023-11-19T00:09:44;5.50;71.10
6740;DHT22;3407;49.882;10.920;2023-11-19T00:14:40;5.50;71.20
6740;DHT22;3407;49.882;10.920;2023-11-19T00:19:36;5.50;71.10
6740;DHT22;3407;49.882;10.920;2023-11-19T00:24:31;5.50;71.20
6740;DHT22;3407;49.882;10.920;2023-11-19T00:29:27;5.60;71.20
6740;DHT22;3407;49.882;10.920;2023-11-19T00:34:22;5.50;71.10
6740;DHT22;3407;49.882;10.920;2023-11-19T00:39:18;5.60;71.30
6740;DHT22;3407;49.882;10.920;2023-11-19T00:44:15;5.60;72.20
6740;DHT22;3407;49.882;10.920;2023-11-19T00:49:10;5.60;71.60
6740;DHT22;3407;49.882;10.920;2023-11-19T00:54:07;5.60;71.60
6740;DHT22;3407;49.882;10.920;2023-11-19T00:59:02;5.60;71.60
6740;DHT22;3407;49.882;10.920;2023-11-19T01:03:59;5.60;71.70
6740;DHT22;3407;49.882;10.920;2023-11-19T01:08:55;5.60;71.70
6740;DHT22;3407;49.882;10.920;2023-11-19T01:13:52;5.70;72.00
6740;DHT22;3407;49.882;10.920;2023-11-19T01:18:48;5.70;72.00
6740;DHT22;3407;49.882;10.920;2023-11-19T01:23:44;5.60;71.70
6740;DHT22;3407;49.882;10.920;2023-11-19T01:28:40;5.70;72.00
6740;DHT22;3407;49.882;10.920;2023-11-19T01:33:40;5.70;72.00
6740;DHT22;3407;49.882;10.920;2023-11-19T01:38:36;5.70;72.10
6740;DHT22;3407;49.882;10.920;2023-11-19T01:43:36;5.70;72.10
6740;DHT22;3407;49.882;10.920;2023-11-19T01:48:34;5.70;72.20
6740;DHT22;3407;49.882;10.920;2023-11-19T01:53:32;5.80;72.30
6740;DHT22;3407;49.882;10.920;2023-11-19T01:58:29;5.80;72.30
6740;DHT22;3407;49.882;10.920;2023-11-19T02:03:25;5.80;72.30
6740;DHT22;3407;49.882;10.920;2023-11-19T02:08:24;5.80;72.30
6740;DHT22;3407;49.882;10.920;2023-11-19T02:13:20;5.80;72.30
6740;DHT22;3407;49.882;10.920;2023-11-19T02:18:26;5.80;72.30
6740;DHT22;3407;49.882;10.920;2023-11-19T02:23:28;5.80;72.40
6740;DHT22;3407;49.882;10.920;2023-11-19T02:28:25;5.80;72.40
6740;DHT22;3407;49.882;10.920;2023-11-19T02:33:20;5.80;72.40
6740;DHT22;3407;49.882;10.920;2023-11-19T02:38:16;5.90;72.50
6740;DHT22;3407;49.882;10.920;2023-11-19T02:43:11;5.90;72.50
6740;DHT22;3407;49.882;10.920;2023-11-19T02:48:07;5.90;72.50
6740;DHT22;3407;49.882;10.920;2023-11-19T02:53:02;5.90;72.50
6740;DHT22;3407;49.882;10.920;2023-11-19T02:57:58;5.90;72.40
6740;DHT22;3407;49.882;10.920;2023-11-19T03:02:54;5.90;72.50
6740;DHT22;3407;49.882;10.920;2023-11-19T03:08:14;5.90;72.40
6740;DHT22;3407;49.882;10.920;2023-11-19T03:13:12;5.90;72.50
6740;DHT22;3407;49.882;10.920;2023-11-19T03:18:09;5.90;72.40
6740;DHT22;3407;49.882;10.920;2023-11-19T03:23:04;5.90;72.50
6740;DHT22;3407;49.882;10.920;2023-11-19T03:28:01;5.90;72.50
6740;DHT22;3407;49.882;10.920;2023-11-19T03:32:57;5.90;72.50
6740;DHT22;3407;49.882;10.920;2023-11-19T03:37:53;5.90;72.50
6740;DHT22;3407;49.882;10.920;2023-11-19T03:42:49;5.90;72.50
6740;DHT22;3407;49.882;10.920;2023-11-19T03:47:44;6.00;72.60
6740;DHT22;3407;49.882;10.920;2023-11-19T03:52:39;6.00;72.60
6740;DHT22;3407;49.882;10.920;2023-11-19T03:57:35;6.00;72.60
6740;DHT22;3407;49.882;10.920;2023-11-19T04:02:31;6.10;72.80
6740;DHT22;3407;49.882;10.920;2023-11-19T04:07:26;6.10;72.80
6740;DHT22;3407;49.882;10.920;2023-11-19T04:12:22;6.10;72.80
6740;DHT22;3407;49.882;10.920;2023-11-19T04:17:17;6.20;72.90
6740;DHT22;3407;49.882;10.920;2023-11-19T04:22:13;6.20;72.90
6740;DHT22;3407;49.882;10.920;2023-11-19T04:27:09;6.20;72.90
6740;DHT22;3407;49.882;10.920;2023-11-19T04:32:05;6.20;73.00
6740;DHT22;3407;49.882;10.920;2023-11-19T04:37:00;6.30;73.20
6740;DHT22;3407;49.882;10.920;2023-11-19T04:41:59;6.30;73.20
6740;DHT22;3407;49.882;10.920;2023-11-19T04:46:55;6.30;73.30
6740;DHT22;3407;49.882;10.920;2023-11-19T04:51:50;6.30;73.30
6740;DHT22;3407;49.882;10.920;2023-11-19T04:56:46;6.30;73.40
6740;DHT22;3407;49.882;10.920;2023-11-19T05:01:46;6.30;73.50
6740;DHT22;3407;49.882;10.920;2023-11-19T05:06:42;6.40;73.70
6740;DHT22;3407;49.882;10.920;2023-11-19T05:11:37;6.50;73.90
6740;DHT22;3407;49.882;10.920;2023-11-19T05:16:34;6.60;74.00
6740;DHT22;3407;49.882;10.920;2023-11-19T05:21:30;6.60;74.00
6740;DHT22;3407;49.882;10.920;2023-11-19T05:26:26;6.70;74.30
6740;DHT22;3407;49.882;10.920;2023-11-19T05:31:21;6.70;74.30
6740;DHT22;3407;49.882;10.920;2023-11-19T05:36:17;6.80;74.40
6740;DHT22;3407;49.882;10.920;2023-11-19T05:41:12;6.80;74.60
6740;DHT22;3407;49.882;10.920;2023-11-19T05:46:08;6.80;74.80
6740;DHT22;3407;49.882;10.920;2023-11-19T05:51:04;6.80;74.90
6740;DHT22;3407;49.882;10.920;2023-11-19T05:56:00;6.80;74.90
6740;DHT22;3407;49.882;10.920;2023-11-19T06:01:00;6.90;75.80
6740;DHT22;3407;49.882;10.920;2023-11-19T06:05:56;6.90;75.00
6740;DHT22;3407;49.882;10.920;2023-11-19T06:10:51;6.90;74.90
6740;DHT22;3407;49.882;10.920;2023-11-19T06:15:47;7.00;75.00
6740;DHT22;3407;49.882;10.920;2023-11-19T06:20:43;7.00;75.00
6740;DHT22;3407;49.882;10.920;2023-11-19T06:25:39;7.00;75.70
6740;DHT22;3407;49.882;10.920;2023-11-19T06:30:34;7.10;75.30
6740;DHT22;3407;49.882;10.920;2023-11-19T06:35:31;7.10;75.30
6740;DHT22;3407;49.882;10.920;2023-11-19T06:40:34;7.10;75.30
6740;DHT22;3407;49.882;10.920;2023-11-19T06:45:33;7.20;75.50
6740;DHT22;3407;49.882;10.920;2023-11-19T06:50:28;7.20;75.40
6740;DHT22;3407;49.882;10.920;2023-11-19T06:55:24;7.20;75.50
6740;DHT22;3407;49.882;10.920;2023-11-19T07:00:19;7.30;75.70
6740;DHT22;3407;49.882;10.920;2023-11-19T07:05:15;7.40;76.00
6740;DHT22;3407;49.882;10.920;2023-11-19T07:10:11;7.40;76.20
6740;DHT22;3407;49.882;10.920;2023-11-19T07:15:07;7.50;76.40
6740;DHT22;3407;49.882;10.920;2023-11-19T07:20:02;7.60;76.50
6740;DHT22;3407;49.882;10.920;2023-11-19T07:24:59;7.60;76.40
6740;DHT22;3407;49.882;10.920;2023-11-19T07:29:55;7.70;76.60
6740;DHT22;3407;49.882;10.920;2023-11-19T07:34:51;7.80;76.50
6740;DHT22;3407;49.882;10.920;2023-11-19T07:39:46;7.90;76.50
6740;DHT22;3407;49.882;10.920;2023-11-19T07:44:43;8.00;76.50
6740;DHT22;3407;49.882;10.920;2023-11-19T07:49:39;8.10;77.10
6740;DHT22;3407;49.882;10.920;2023-11-19T07:54:35;8.10;77.50
6740;DHT22;3407;49.882;10.920;2023-11-19T07:59:30;8.20;77.70
6740;DHT22;3407;49.882;10.920;2023-11-19T08:04:26;8.20;78.20
6740;DHT22;3407;49.882;10.920;2023-11-19T08:09:21;8.30;78.50
6740;DHT22;3407;49.882;10.920;2023-11-19T08:14:18;8.40;78.20
6740;DHT22;3407;49.882;10.920;2023-11-19T08:19:14;8.50;78.70
6740;DHT22;3407;49.882;10.920;2023-11-19T08:24:09;8.60;79.00
6740;DHT22;3407;49.882;10.920;2023-11-19T08:29:05;8.70;79.50
6740;DHT22;3407;49.882;10.920;2023-11-19T08:34:01;8.70;79.80
6740;DHT22;3407;49.882;10.920;2023-11-19T08:38:57;8.80;80.10
6740;DHT22;3407;49.882;10.920;2023-11-19T08:43:52;9.00;80.20
6740;DHT22;3407;49.882;10.920;2023-11-19T08:48:48;9.10;80.30
6740;DHT22;3407;49.882;10.920;2023-11-19T08:53:43;9.30;80.40
6740;DHT22;3407;49.882;10.920;2023-11-19T08:58:39;9.50;80.40
6740;DHT22;3407;49.882;10.920;2023-11-19T09:03:35;9.80;80.40
6740;DHT22;3407;49.882;10.920;2023-11-19T09:08:32;10.00;79.50
6740;DHT22;3407;49.882;10.920;2023-11-19T09:13:27;10.20;79.80
6740;DHT22;3407;49.882;10.920;2023-11-19T09:18:23;10.50;79.70
6740;DHT22;3407;49.882;10.920;2023-11-19T09:23:18;10.70;80.50
6740;DHT22;3407;49.882;10.920;2023-11-19T09:28:14;10.70;81.60
6740;DHT22;3407;49.882;10.920;2023-11-19T09:33:09;10.70;83.20
6740;DHT22;3407;49.882;10.920;2023-11-19T09:38:05;11.00;82.80
6740;DHT22;3407;49.882;10.920;2023-11-19T09:43:01;11.70;80.40
6740;DHT22;3407;49.882;10.920;2023-11-19T09:47:57;11.90;82.20
6740;DHT22;3407;49.882;10.920;2023-11-19T09:52:54;11.80;87.20
6740;DHT22;3407;49.882;10.920;2023-11-19T09:57:51;11.70;89.80
6740;DHT22;3407;49.882;10.920;2023-11-19T10:02:48;11.60;90.20
6740;DHT22;3407;49.882;10.920;2023-11-19T10:07:44;11.50;89.60
6740;DHT22;3407;49.882;10.920;2023-11-19T10:12:40;11.80;90.40
6740;DHT22;3407;49.882;10.920;2023-11-19T10:17:36;12.00;90.80
6740;DHT22;3407;49.882;10.920;2023-11-19T10:22:37;11.90;89.70
6740;DHT22;3407;49.882;10.920;2023-11-19T10:27:34;11.90;89.40
6740;DHT22;3407;49.882;10.920;2023-11-19T10:32:30;12.20;90.60
6740;DHT22;3407;49.882;10.920;2023-11-19T10:37:28;12.50;90.60
6740;DHT22;3407;49.882;10.920;2023-11-19T10:42:27;13.00;91.10
6740;DHT22;3407;49.882;10.920;2023-11-19T10:47:23;13.30;83.10
6740;DHT22;3407;49.882;10.920;2023-11-19T10:52:19;13.50;55.60
6740;DHT22;3407;49.882;10.920;2023-11-19T10:57:20;13.90;19.60
6740;DHT22;3407;49.882;10.920;2023-11-19T11:02:19;14.50;2.30
6740;DHT22;3407;49.882;10.920;2023-11-19T11:07:21;15.00;1.00
6740;DHT22;3407;49.882;10.920;2023-11-19T11:12:18;14.80;99.90
6740;DHT22;3407;49.882;10.920;2023-11-19T11:17:17;14.40;1.00
6740;DHT22;3407;49.882;10.920;2023-11-19T11:22:14;14.30;1.00
6740;DHT22;3407;49.882;10.920;2023-11-19T11:27:35;14.20;1.00
6740;DHT22;3407;49.882;10.920;2023-11-19T11:33:14;13.80;1.00
6740;DHT22;3407;49.882;10.920;2023-11-19T11:38:14;13.80;1.00
6740;DHT22;3407;49.882;10.920;2023-11-19T11:48:47;13.30;99.90
6740;DHT22;3407;49.882;10.920;2023-11-19T11:53:47;13.10;1.00
6740;DHT22;3407;49.882;10.920;2023-11-19T11:58:42;13.70;1.00
6740;DHT22;3407;49.882;10.920;2023-11-19T12:03:39;14.00;99.90
6740;DHT22;3407;49.882;10.920;2023-11-19T12:08:35;14.00;99.90
6740;DHT22;3407;49.882;10.920;2023-11-19T12:13:52;13.80;1.00
6740;DHT22;3407;49.882;10.920;2023-11-19T12:18:48;13.50;99.90
6740;DHT22;3407;49.882;10.920;2023-11-19T12:23:46;13.30;99.90
6740;DHT22;3407;49.882;10.920;2023-11-19T12:28:57;13.30;1.00
6740;DHT22;3407;49.882;10.920;2023-11-19T12:33:53;13.40;1.00
6740;DHT22;3407;49.882;10.920;2023-11-19T12:38:49;13.30;1.00
6740;DHT22;3407;49.882;10.920;2023-11-19T12:43:44;13.20;1.00
6740;DHT22;3407;49.882;10.920;2023-11-19T12:48:41;13.00;1.00
6740;DHT22;3407;49.882;10.920;2023-11-19T12:53:51;12.80;1.00
6740;DHT22;3407;49.882;10.920;2023-11-19T12:58:49;12.60;1.00
6740;DHT22;3407;49.882;10.920;2023-11-19T13:03:46;12.60;1.00
6740;DHT22;3407;49.882;10.920;2023-11-19T13:08:44;12.40;1.00
6740;DHT22;3407;49.882;10.920;2023-11-19T13:13:55;12.20;1.00
6740;DHT22;3407;49.882;10.920;2023-11-19T13:18:50;12.10;1.00
6740;DHT22;3407;49.882;10.920;2023-11-19T13:23:46;12.00;1.00
6740;DHT22;3407;49.882;10.920;2023-11-19T13:28:42;11.90;1.00
6740;DHT22;3407;49.882;10.920;2023-11-19T13:33:37;11.90;1.00
6740;DHT22;3407;49.882;10.920;2023-11-19T13:38:33;12.00;1.00
6740;DHT22;3407;49.882;10.920;2023-11-19T13:43:31;12.60;9.50
6740;DHT22;3407;49.882;10.920;2023-11-19T13:48:26;13.30;1.00
6740;DHT22;3407;49.882;10.920;2023-11-19T13:53:24;13.80;1.00
6740;DHT22;3407;49.882;10.920;2023-11-19T13:58:19;14.10;1.00
6740;DHT22;3407;49.882;10.920;2023-11-19T14:03:15;14.30;1.00
6740;DHT22;3407;49.882;10.920;2023-11-19T14:08:10;14.30;99.90
6740;DHT22;3407;49.882;10.920;2023-11-19T14:13:09;14.70;99.90
6740;DHT22;3407;49.882;10.920;2023-11-19T14:18:04;14.80;99.90
6740;DHT22;3407;49.882;10.920;2023-11-19T14:23:00;15.10;1.00
6740;DHT22;3407;49.882;10.920;2023-11-19T14:27:55;15.20;99.90
6740;DHT22;3407;49.882;10.920;2023-11-19T14:32:51;14.90;1.00
6740;DHT22;3407;49.882;10.920;2023-11-19T14:37:46;14.20;99.90
6740;DHT22;3407;49.882;10.920;2023-11-19T14:42:43;13.80;1.00
6740;DHT22;3407;49.882;10.920;2023-11-19T14:47:38;13.20;99.90
6740;DHT22;3407;49.882;10.920;2023-11-19T14:52:35;12.70;99.90
6740;DHT22;3407;49.882;10.920;2023-11-19T14:57:31;12.30;99.90
6740;DHT22;3407;49.882;10.920;2023-11-19T15:02:27;12.00;1.00
6740;DHT22;3407;49.882;10.920;2023-11-19T15:07:23;11.70;1.00
6740;DHT22;3407;49.882;10.920;2023-11-19T15:12:18;11.50;1.00
6740;DHT22;3407;49.882;10.920;2023-11-19T15:17:14;11.20;1.00
6740;DHT22;3407;49.882;10.920;2023-11-19T15:22:09;11.10;1.00
6740;DHT22;3407;49.882;10.920;2023-11-19T15:27:06;11.00;1.00
6740;DHT22;3407;49.882;10.920;2023-11-19T15:32:02;10.90;1.00
6740;DHT22;3407;49.882;10.920;2023-11-19T15:36:58;10.80;1.00
6740;DHT22;3407;49.882;10.920;2023-11-19T15:41:55;10.70;1.00
6740;DHT22;3407;49.882;10.920;2023-11-19T15:46:53;10.60;1.00
6740;DHT22;3407;49.882;10.920;2023-11-19T15:51:49;10.50;1.00
6740;DHT22;3407;49.882;10.920;2023-11-19T15:56:44;10.40;1.00
6740;DHT22;3407;49.882;10.920;2023-11-19T16:01:40;10.30;1.00
6740;DHT22;3407;49.882;10.920;2023-11-19T16:06:36;10.20;1.00
6740;DHT22;3407;49.882;10.920;2023-11-19T16:11:32;10.30;1.00
6740;DHT22;3407;49.882;10.920;2023-11-19T16:16:27;10.30;1.00
6740;DHT22;3407;49.882;10.920;2023-11-19T16:21:24;10.40;1.00
6740;DHT22;3407;49.882;10.920;2023-11-19T16:26:20;10.40;1.00
6740;DHT22;3407;49.882;10.920;2023-11-19T16:31:19;10.40;1.00
6740;DHT22;3407;49.882;10.920;2023-11-19T16:36:15;10.30;1.00
6740;DHT22;3407;49.882;10.920;2023-11-19T16:41:11;10.20;1.00
6740;DHT22;3407;49.882;10.920;2023-11-19T16:46:11;10.00;1.00
6740;DHT22;3407;49.882;10.920;2023-11-19T16:51:11;9.90;1.00
6740;DHT22;3407;49.882;10.920;2023-11-19T16:56:09;9.60;1.00
6740;DHT22;3407;49.882;10.920;2023-11-19T17:01:04;9.40;1.00
6740;DHT22;3407;49.882;10.920;2023-11-19T17:06:01;9.20;1.00
6740;DHT22;3407;49.882;10.920;2023-11-19T17:10:56;9.10;9.50
6740;DHT22;3407;49.882;10.920;2023-11-19T17:15:52;9.00;16.20
6740;DHT22;3407;49.882;10.920;2023-11-19T17:20:48;8.90;19.70
6740;DHT22;3407;49.882;10.920;2023-11-19T17:25:44;8.80;23.30
6740;DHT22;3407;49.882;10.920;2023-11-19T17:30:40;8.70;28.60
6740;DHT22;3407;49.882;10.920;2023-11-19T17:35:37;8.50;28.40
6740;DHT22;3407;49.882;10.920;2023-11-19T17:40:32;8.40;33.00
6740;DHT22;3407;49.882;10.920;2023-11-19T17:45:28;8.40;39.20
6740;DHT22;3407;49.882;10.920;2023-11-19T17:50:24;8.30;40.00
6740;DHT22;3407;49.882;10.920;2023-11-19T17:55:21;8.30;42.00
6740;DHT22;3407;49.882;10.920;2023-11-19T18:00:16;8.20;45.20
6740;DHT22;3407;49.882;10.920;2023-11-19T18:05:12;8.20;47.40
6740;DHT22;3407;49.882;10.920;2023-11-19T18:10:09;8.20;48.90
6740;DHT22;3407;49.882;10.920;2023-11-19T18:15:08;8.20;51.00
6740;DHT22;3407;49.882;10.920;2023-11-19T18:20:04;8.10;50.40
6740;DHT22;3407;49.882;10.920;2023-11-19T18:25:00;8.10;50.10
6740;DHT22;3407;49.882;10.920;2023-11-19T18:29:55;8.00;49.70
6740;DHT22;3407;49.882;10.920;2023-11-19T18:34:51;7.90;51.10
6740;DHT22;3407;49.882;10.920;2023-11-19T18:39:46;7.80;52.10
6740;DHT22;3407;49.882;10.920;2023-11-19T18:44:42;7.80;53.90
6740;DHT22;3407;49.882;10.920;2023-11-19T18:49:37;7.80;55.70
6740;DHT22;3407;49.882;10.920;2023-11-19T18:54:33;7.80;56.20
6740;DHT22;3407;49.882;10.920;2023-11-19T18:59:30;7.70;53.80
6740;DHT22;3407;49.882;10.920;2023-11-19T19:04:26;7.60;53.40
6740;DHT22;3407;49.882;10.920;2023-11-19T19:09:24;7.40;51.80
6740;DHT22;3407;49.882;10.920;2023-11-19T19:14:20;7.40;53.20
6740;DHT22;3407;49.882;10.920;2023-11-19T19:19:15;7.40;56.00
6740;DHT22;3407;49.882;10.920;2023-11-19T19:24:11;7.40;57.90
6740;DHT22;3407;49.882;10.920;2023-11-19T19:29:09;7.30;56.00
6740;DHT22;3407;49.882;10.920;2023-11-19T19:34:06;7.20;54.70
6740;DHT22;3407;49.882;10.920;2023-11-19T19:39:03;7.10;55.30
6740;DHT22;3407;49.882;10.920;2023-11-19T19:43:59;7.10;57.50
6740;DHT22;3407;49.882;10.920;2023-11-19T19:48:54;7.20;59.50
6740;DHT22;3407;49.882;10.920;2023-11-19T19:53:50;7.20;58.80
6740;DHT22;3407;49.882;10.920;2023-11-19T19:58:45;7.30;61.60
6740;DHT22;3407;49.882;10.920;2023-11-19T20:03:41;7.40;64.10
6740;DHT22;3407;49.882;10.920;2023-11-19T20:08:38;7.50;65.50
6740;DHT22;3407;49.882;10.920;2023-11-19T20:13:34;7.60;66.30
6740;DHT22;3407;49.882;10.920;2023-11-19T20:18:30;7.70;66.50
6740;DHT22;3407;49.882;10.920;2023-11-19T20:23:27;7.80;66.00
6740;DHT22;3407;49.882;10.920;2023-11-19T20:28:22;7.80;65.20
6740;DHT22;3407;49.882;10.920;2023-11-19T20:33:18;7.80;63.40
6740;DHT22;3407;49.882;10.920;2023-11-19T20:38:15;7.70;59.80
6740;DHT22;3407;49.882;10.920;2023-11-19T20:43:11;7.70;57.90
6740;DHT22;3407;49.882;10.920;2023-11-19T20:48:07;7.60;53.90
6740;DHT22;3407;49.882;10.920;2023-11-19T20:53:02;7.40;52.70
6740;DHT22;3407;49.882;10.920;2023-11-19T20:57:58;7.40;52.50
6740;DHT22;3407;49.882;10.920;2023-11-19T21:02:53;7.30;52.90
6740;DHT22;3407;49.882;10.920;2023-11-19T21:07:49;7.30;54.20
6740;DHT22;3407;49.882;10.920;2023-11-19T21:12:45;7.40;58.50
6740;DHT22;3407;49.882;10.920;2023-11-19T21:17:42;7.60;59.30
6740;DHT22;3407;49.882;10.920;2023-11-19T21:22:38;7.60;56.90
6740;DHT22;3407;49.882;10.920;2023-11-19T21:27:33;7.70;53.80
6740;DHT22;3407;49.882;10.920;2023-11-19T21:32:29;7.60;50.70
6740;DHT22;3407;49.882;10.920;2023-11-19T21:37:24;7.70;50.50
6740;DHT22;3407;49.882;10.920;2023-11-19T21:42:20;7.80;50.90
6740;DHT22;3407;49.882;10.920;2023-11-19T21:47:15;7.90;52.00
6740;DHT22;3407;49.882;10.920;2023-11-19T21:52:11;8.00;50.80
6740;DHT22;3407;49.882;10.920;2023-11-19T21:57:06;8.10;48.30
6740;DHT22;3407;49.882;10.920;2023-11-19T22:02:02;8.20;44.80
6740;DHT22;3407;49.882;10.920;2023-11-19T22:06:57;8.30;39.10
6740;DHT22;3407;49.882;10.920;2023-11-19T22:11:53;8.40;29.60
6740;DHT22;3407;49.882;10.920;2023-11-19T22:16:49;8.50;23.40
6740;DHT22;3407;49.882;10.920;2023-11-19T22:21:44;8.50;18.40
6740;DHT22;3407;49.882;10.920;2023-11-19T22:26:40;8.60;9.70
6740;DHT22;3407;49.882;10.920;2023-11-19T22:31:35;8.60;2.80
6740;DHT22;3407;49.882;10.920;2023-11-19T22:36:31;8.70;1.00
6740;DHT22;3407;49.882;10.920;2023-11-19T22:41:26;8.70;1.00
6740;DHT22;3407;49.882;10.920;2023-11-19T22:46:22;8.80;1.00
6740;DHT22;3407;49.882;10.920;2023-11-19T22:51:18;8.80;1.00
6740;DHT22;3407;49.882;10.920;2023-11-19T22:56:13;8.80;1.00
6740;DHT22;3407;49.882;10.920;2023-11-19T23:01:11;8.90;1.00
6740;DHT22;3407;49.882;10.920;2023-11-19T23:06:07;9.00;1.00
6740;DHT22;3407;49.882;10.920;2023-11-19T23:11:04;9.10;1.00
6740;DHT22;3407;49.882;10.920;2023-11-19T23:16:00;9.10;1.00
6740;DHT22;3407;49.882;10.920;2023-11-19T23:20:56;9.20;1.00
6740;DHT22;3407;49.882;10.920;2023-11-19T23:25:51;9.20;1.00
6740;DHT22;3407;49.882;10.920;2023-11-19T23:30:47;9.30;1.00
6740;DHT22;3407;49.882;10.920;2023-11-19T23:35:43;9.30;1.00
6740;DHT22;3407;49.882;10.920;2023-11-19T23:40:38;9.30;1.00
6740;DHT22;3407;49.882;10.920;2023-11-19T23:45:34;9.30;1.00
6740;DHT22;3407;49.882;10.920;2023-11-19T23:50:29;9.40;1.00
6740;DHT22;3407;49.882;10.920;2023-11-19T23:55:25;9.50;99.90
